sensor_id;sensor_type;location;lat;lon;timestamp;pressure;altitude;pressure_sealevel;temperature;humidity
57068;BME280;43391;47.448;18.904;2023-05-03T00:00:27;100005.78;;;12.88;100.00
57068;BME280;43391;47.448;18.904;2023-05-03T00:02:53;100006.34;;;12.93;100.00
57068;BME280;43391;47.448;18.904;2023-05-03T00:05:21;100005.25;;;12.97;100.00
57068;BME280;43391;47.448;18.904;2023-05-03T00:07:46;100007.44;;;12.89;100.00
57068;BME280;43391;47.448;18.904;2023-05-03T00:10:12;100000.56;;;12.88;100.00
57068;BME280;43391;47.448;18.904;2023-05-03T00:12:40;100003.47;;;12.82;100.00
57068;BME280;43391;47.448;18.904;2023-05-03T00:15:06;99999.78;;;12.86;100.00
57068;BME280;43391;47.448;18.904;2023-05-03T00:17:32;100003.25;;;12.86;100.00
57068;BME280;43391;47.448;18.904;2023-05-03T00:19:58;100003.25;;;12.86;100.00
57068;BME280;43391;47.448;18.904;2023-05-03T00:22:23;100005.06;;;12.84;100.00
57068;BME280;43391;47.448;18.904;2023-05-03T00:24:49;99997.19;;;12.86;100.00
57068;BME280;43391;47.448;18.904;2023-05-03T00:27:16;99999.78;;;12.86;100.00
57068;BME280;43391;47.448;18.904;2023-05-03T00:29:41;100000.63;;;12.86;100.00
57068;BME280;43391;47.448;18.904;2023-05-03T00:32:06;100002.72;;;12.80;100.00
57068;BME280;43391;47.448;18.904;2023-05-03T00:34:32;99992.47;;;12.76;100.00
57068;BME280;43391;47.448;18.904;2023-05-03T00:36:58;99995.91;;;12.77;100.00
57068;BME280;43391;47.448;18.904;2023-05-03T00:39:23;100002.66;;;12.81;100.00
57068;BME280;43391;47.448;18.904;2023-05-03T00:41:49;100003.66;;;12.79;100.00
57068;BME280;43391;47.448;18.904;2023-05-03T00:44:14;100010.88;;;12.73;100.00
57068;BME280;43391;47.448;18.904;2023-05-03T00:46:39;100013.28;;;12.76;100.00
57068;BME280;43391;47.448;18.904;2023-05-03T00:49:05;100014.91;;;12.79;100.00
57068;BME280;43391;47.448;18.904;2023-05-03T00:51:30;100014.06;;;12.79;100.00
57068;BME280;43391;47.448;18.904;2023-05-03T00:53:57;100009.69;;;12.79;100.00
57068;BME280;43391;47.448;18.904;2023-05-03T00:56:22;100017.34;;;12.82;100.00
57068;BME280;43391;47.448;18.904;2023-05-03T00:58:50;100020.09;;;12.79;100.00
57068;BME280;43391;47.448;18.904;2023-05-03T01:01:16;100018.59;;;12.75;100.00
57068;BME280;43391;47.448;18.904;2023-05-03T01:03:42;100018.44;;;12.78;100.00
57068;BME280;43391;47.448;18.904;2023-05-03T01:11:51;100027.63;;;12.85;100.00
57068;BME280;43391;47.448;18.904;2023-05-03T01:14:31;100027.28;;;12.92;100.00
57068;BME280;43391;47.448;18.904;2023-05-03T01:17:03;100036.34;;;12.84;100.00
57068;BME280;43391;47.448;18.904;2023-05-03T01:19:36;100031.97;;;12.85;100.00
57068;BME280;43391;47.448;18.904;2023-05-03T01:24:40;100031.38;;;12.96;100.00
57068;BME280;43391;47.448;18.904;2023-05-03T01:27:06;100027.44;;;12.55;100.00
57068;BME280;43391;47.448;18.904;2023-05-03T01:29:33;100025.97;;;12.67;100.00
57068;BME280;43391;47.448;18.904;2023-05-03T01:32:00;100029.09;;;12.73;100.00
57068;BME280;43391;47.448;18.904;2023-05-03T01:34:51;100027.09;;;12.79;100.00
57068;BME280;43391;47.448;18.904;2023-05-03T01:37:19;100025.56;;;12.74;100.00
57068;BME280;43391;47.448;18.904;2023-05-03T01:40:05;100030.44;;;12.81;100.00
57068;BME280;43391;47.448;18.904;2023-05-03T01:42:35;100021.88;;;12.95;100.00
57068;BME280;43391;47.448;18.904;2023-05-03T01:45:03;100027.09;;;12.95;100.00
57068;BME280;43391;47.448;18.904;2023-05-03T01:47:28;100022.16;;;12.90;100.00
57068;BME280;43391;47.448;18.904;2023-05-03T01:49:54;100022.16;;;12.90;100.00
57068;BME280;43391;47.448;18.904;2023-05-03T01:52:20;100023.81;;;12.91;100.00
57068;BME280;43391;47.448;18.904;2023-05-03T01:54:45;100015.19;;;12.91;100.00
57068;BME280;43391;47.448;18.904;2023-05-03T01:57:11;100012.47;;;12.92;100.00
57068;BME280;43391;47.448;18.904;2023-05-03T01:59:36;100014.41;;;12.88;100.00
57068;BME280;43391;47.448;18.904;2023-05-03T02:02:01;100009.19;;;12.88;100.00
57068;BME280;43391;47.448;18.904;2023-05-03T02:04:27;100009.38;;;12.85;100.00
57068;BME280;43391;47.448;18.904;2023-05-03T02:06:53;100011.13;;;12.85;100.00
57068;BME280;43391;47.448;18.904;2023-05-03T02:09:19;100009.47;;;12.84;100.00
57068;BME280;43391;47.448;18.904;2023-05-03T02:11:44;100002.81;;;12.78;100.00
57068;BME280;43391;47.448;18.904;2023-05-03T02:14:10;100004.00;;;12.72;100.00
57068;BME280;43391;47.448;18.904;2023-05-03T02:16:36;100006.47;;;12.74;100.00
57068;BME280;43391;47.448;18.904;2023-05-03T02:19:01;99994.47;;;12.71;100.00
57068;BME280;43391;47.448;18.904;2023-05-03T02:21:27;99995.31;;;12.72;100.00
57068;BME280;43391;47.448;18.904;2023-05-03T02:23:52;99994.78;;;12.65;100.00
57068;BME280;43391;47.448;18.904;2023-05-03T02:26:18;99998.25;;;12.66;100.00
57068;BME280;43391;47.448;18.904;2023-05-03T02:28:44;99994.97;;;12.62;100.00
57068;BME280;43391;47.448;18.904;2023-05-03T02:31:09;99995.66;;;12.66;100.00
57068;BME280;43391;47.448;18.904;2023-05-03T02:33:35;99992.38;;;12.62;100.00
57068;BME280;43391;47.448;18.904;2023-05-03T02:36:00;99994.13;;;12.61;100.00
57068;BME280;43391;47.448;18.904;2023-05-03T02:38:27;99990.59;;;12.62;100.00
57068;BME280;43391;47.448;18.904;2023-05-03T02:40:52;99992.44;;;12.60;100.00
57068;BME280;43391;47.448;18.904;2023-05-03T02:43:17;99992.44;;;12.60;100.00
57068;BME280;43391;47.448;18.904;2023-05-03T02:45:43;99987.56;;;12.54;100.00
57068;BME280;43391;47.448;18.904;2023-05-03T02:48:08;99982.25;;;12.56;100.00
57068;BME280;43391;47.448;18.904;2023-05-03T02:50:34;99982.97;;;12.59;100.00
57068;BME280;43391;47.448;18.904;2023-05-03T02:53:00;99987.25;;;12.60;100.00
57068;BME280;43391;47.448;18.904;2023-05-03T02:55:26;99986.47;;;12.58;100.00
57068;BME280;43391;47.448;18.904;2023-05-03T02:57:51;99977.56;;;12.62;100.00
57068;BME280;43391;47.448;18.904;2023-05-03T03:00:17;99978.16;;;12.68;100.00
57068;BME280;43391;47.448;18.904;2023-05-03T03:02:42;99984.72;;;12.59;100.00
57068;BME280;43391;47.448;18.904;2023-05-03T03:05:08;99981.09;;;12.61;100.00
57068;BME280;43391;47.448;18.904;2023-05-03T03:07:33;99983.63;;;12.63;100.00
57068;BME280;43391;47.448;18.904;2023-05-03T03:09:59;99977.50;;;12.64;100.00
57068;BME280;43391;47.448;18.904;2023-05-03T03:12:25;99975.81;;;12.63;100.00
57068;BME280;43391;47.448;18.904;2023-05-03T03:14:52;99972.53;;;12.59;100.00
57068;BME280;43391;47.448;18.904;2023-05-03T03:17:18;99980.25;;;12.61;100.00
57068;BME280;43391;47.448;18.904;2023-05-03T03:19:43;99981.19;;;12.60;100.00
57068;BME280;43391;47.448;18.904;2023-05-03T03:22:08;99986.38;;;12.60;100.00
57068;BME280;43391;47.448;18.904;2023-05-03T03:24:34;99984.56;;;12.62;100.00
57068;BME280;43391;47.448;18.904;2023-05-03T03:26:59;99984.63;;;12.60;100.00
57068;BME280;43391;47.448;18.904;2023-05-03T03:29:25;99988.38;;;12.55;100.00
57068;BME280;43391;47.448;18.904;2023-05-03T03:31:52;99987.56;;;12.70;100.00
57068;BME280;43391;47.448;18.904;2023-05-03T03:34:17;99988.44;;;12.71;100.00
57068;BME280;43391;47.448;18.904;2023-05-03T03:36:42;99989.03;;;12.76;100.00
57068;BME280;43391;47.448;18.904;2023-05-03T03:39:08;99981.81;;;12.81;100.00
57068;BME280;43391;47.448;18.904;2023-05-03T03:41:35;99989.78;;;12.78;100.00
57068;BME280;43391;47.448;18.904;2023-05-03T03:44:00;99984.91;;;12.72;100.00
57068;BME280;43391;47.448;18.904;2023-05-03T03:46:25;99989.44;;;12.84;100.00
57068;BME280;43391;47.448;18.904;2023-05-03T03:48:51;99989.28;;;12.87;100.00
57068;BME280;43391;47.448;18.904;2023-05-03T03:51:16;99990.97;;;12.72;100.00
57068;BME280;43391;47.448;18.904;2023-05-03T03:53:41;100004.28;;;12.66;100.00
57068;BME280;43391;47.448;18.904;2023-05-03T03:56:07;100003.63;;;12.62;100.00
57068;BME280;43391;47.448;18.904;2023-05-03T03:58:33;99997.88;;;12.56;100.00
57068;BME280;43391;47.448;18.904;2023-05-03T04:00:59;100005.53;;;12.59;100.00
57068;BME280;43391;47.448;18.904;2023-05-03T04:03:25;100006.47;;;12.58;100.00
57068;BME280;43391;47.448;18.904;2023-05-03T04:05:50;100018.63;;;12.57;100.00
57068;BME280;43391;47.448;18.904;2023-05-03T04:08:16;100024.53;;;12.61;100.00
57068;BME280;43391;47.448;18.904;2023-05-03T04:10:41;100018.16;;;12.67;100.00
57068;BME280;43391;47.448;18.904;2023-05-03T04:13:07;100020.75;;;12.67;100.00
57068;BME280;43391;47.448;18.904;2023-05-03T04:15:33;100018.41;;;12.62;100.00
57068;BME280;43391;47.448;18.904;2023-05-03T04:17:58;100022.09;;;12.58;100.00
57068;BME280;43391;47.448;18.904;2023-05-03T04:20:23;100029.84;;;12.59;100.00
57068;BME280;43391;47.448;18.904;2023-05-03T04:22:49;100026.38;;;12.59;100.00
57068;BME280;43391;47.448;18.904;2023-05-03T04:25:14;100029.56;;;12.64;100.00
57068;BME280;43391;47.448;18.904;2023-05-03T04:27:42;100037.00;;;12.72;100.00
57068;BME280;43391;47.448;18.904;2023-05-03T04:30:08;100033.38;;;12.74;100.00
57068;BME280;43391;47.448;18.904;2023-05-03T04:32:34;100040.34;;;12.74;100.00
57068;BME280;43391;47.448;18.904;2023-05-03T04:35:05;100042.72;;;12.79;100.00
57068;BME280;43391;47.448;18.904;2023-05-03T04:37:34;100043.66;;;12.78;100.00
57068;BME280;43391;47.448;18.904;2023-05-03T04:39:59;100052.28;;;12.78;100.00
57068;BME280;43391;47.448;18.904;2023-05-03T04:42:25;100051.13;;;12.84;100.00
57068;BME280;43391;47.448;18.904;2023-05-03T04:44:51;100050.97;;;12.87;100.00
57068;BME280;43391;47.448;18.904;2023-05-03T04:47:16;100053.34;;;12.92;100.00
57068;BME280;43391;47.448;18.904;2023-05-03T04:49:42;100057.56;;;12.94;100.00
57068;BME280;43391;47.448;18.904;2023-05-03T04:52:08;100057.44;;;12.96;100.00
57068;BME280;43391;47.448;18.904;2023-05-03T04:54:34;100062.34;;;13.02;100.00
57068;BME280;43391;47.448;18.904;2023-05-03T04:57:00;100065.38;;;13.10;100.00
57068;BME280;43391;47.448;18.904;2023-05-03T04:59:25;100067.75;;;13.15;100.00
57068;BME280;43391;47.448;18.904;2023-05-03T05:01:51;100072.78;;;13.18;100.00
57068;BME280;43391;47.448;18.904;2023-05-03T05:04:16;100074.44;;;13.19;100.00
57068;BME280;43391;47.448;18.904;2023-05-03T05:06:41;100075.31;;;13.20;100.00
57068;BME280;43391;47.448;18.904;2023-05-03T05:09:19;100075.75;;;13.28;100.00
57068;BME280;43391;47.448;18.904;2023-05-03T05:11:45;100076.56;;;13.28;100.00
57068;BME280;43391;47.448;18.904;2023-05-03T05:14:10;100080.69;;;13.33;100.00
57068;BME280;43391;47.448;18.904;2023-05-03T05:16:36;100072.53;;;13.39;100.00
57068;BME280;43391;47.448;18.904;2023-05-03T05:19:02;100075.59;;;13.47;100.00
57068;BME280;43391;47.448;18.904;2023-05-03T05:21:28;100074.25;;;13.56;100.00
57068;BME280;43391;47.448;18.904;2023-05-03T05:23:53;100082.94;;;13.57;100.00
57068;BME280;43391;47.448;18.904;2023-05-03T05:26:19;100082.50;;;13.64;100.00
57068;BME280;43391;47.448;18.904;2023-05-03T05:28:44;100090.34;;;13.64;100.00
57068;BME280;43391;47.448;18.904;2023-05-03T05:31:09;100089.41;;;13.65;100.00
57068;BME280;43391;47.448;18.904;2023-05-03T05:33:35;100082.25;;;13.69;100.00
57068;BME280;43391;47.448;18.904;2023-05-03T05:36:00;100084.66;;;13.72;100.00
57068;BME280;43391;47.448;18.904;2023-05-03T05:38:25;100096.25;;;13.82;100.00
57068;BME280;43391;47.448;18.904;2023-05-03T05:40:52;100094.06;;;13.75;100.00
57068;BME280;43391;47.448;18.904;2023-05-03T05:43:17;100098.22;;;13.79;100.00
57068;BME280;43391;47.448;18.904;2023-05-03T05:45:42;100097.78;;;13.87;100.00
57068;BME280;43391;47.448;18.904;2023-05-03T05:48:08;100094.44;;;13.85;100.00
57068;BME280;43391;47.448;18.904;2023-05-03T05:50:33;100091.63;;;13.88;100.00
57068;BME280;43391;47.448;18.904;2023-05-03T05:52:59;100091.63;;;13.88;100.00
57068;BME280;43391;47.448;18.904;2023-05-03T05:55:24;100097.47;;;13.77;100.00
57068;BME280;43391;47.448;18.904;2023-05-03T05:57:49;100099.06;;;13.79;100.00
57068;BME280;43391;47.448;18.904;2023-05-03T06:00:15;100107.81;;;13.78;100.00
57068;BME280;43391;47.448;18.904;2023-05-03T06:02:42;100108.06;;;13.74;100.00
57068;BME280;43391;47.448;18.904;2023-05-03T06:05:09;100111.59;;;13.73;100.00
57068;BME280;43391;47.448;18.904;2023-05-03T06:07:34;100103.63;;;13.76;100.00
57068;BME280;43391;47.448;18.904;2023-05-03T06:10:00;100114.88;;;13.76;100.00
57068;BME280;43391;47.448;18.904;2023-05-03T06:12:26;100116.91;;;13.71;100.00
57068;BME280;43391;47.448;18.904;2023-05-03T06:14:51;100127.25;;;13.73;100.00
57068;BME280;43391;47.448;18.904;2023-05-03T06:17:17;100133.22;;;13.75;100.00
57068;BME280;43391;47.448;18.904;2023-05-03T06:19:42;100133.66;;;13.83;100.00
57068;BME280;43391;47.448;18.904;2023-05-03T06:22:08;100135.66;;;13.94;100.00
57068;BME280;43391;47.448;18.904;2023-05-03T06:24:33;100135.13;;;14.03;100.00
57068;BME280;43391;47.448;18.904;2023-05-03T06:26:58;100139.66;;;14.16;100.00
57068;BME280;43391;47.448;18.904;2023-05-03T06:29:25;100139.97;;;14.26;100.00
57068;BME280;43391;47.448;18.904;2023-05-03T06:31:50;100139.63;;;14.32;100.00
57068;BME280;43391;47.448;18.904;2023-05-03T06:34:18;100146.09;;;14.41;100.00
57068;BME280;43391;47.448;18.904;2023-05-03T06:36:44;100149.63;;;14.40;100.00
57068;BME280;43391;47.448;18.904;2023-05-03T06:39:09;100152.34;;;14.53;100.00
57068;BME280;43391;47.448;18.904;2023-05-03T06:41:35;100156.88;;;14.65;100.00
57068;BME280;43391;47.448;18.904;2023-05-03T06:44:00;100153.72;;;14.74;100.00
57068;BME280;43391;47.448;18.904;2023-05-03T06:46:26;100160.00;;;14.86;100.00
57068;BME280;43391;47.448;18.904;2023-05-03T06:48:52;100154.53;;;14.91;100.00
57068;BME280;43391;47.448;18.904;2023-05-03T06:51:21;100154.34;;;14.94;100.00
57068;BME280;43391;47.448;18.904;2023-05-03T06:53:51;100161.63;;;15.04;100.00
57068;BME280;43391;47.448;18.904;2023-05-03T06:56:17;100163.31;;;15.05;100.00
57068;BME280;43391;47.448;18.904;2023-05-03T06:58:42;100159.31;;;14.99;100.00
57068;BME280;43391;47.448;18.904;2023-05-03T07:01:08;100159.75;;;15.06;100.00
57068;BME280;43391;47.448;18.904;2023-05-03T07:03:33;100154.81;;;15.01;100.00
57068;BME280;43391;47.448;18.904;2023-05-03T07:05:58;100161.53;;;15.05;100.00
57068;BME280;43391;47.448;18.904;2023-05-03T07:08:24;100158.84;;;15.07;100.00
57068;BME280;43391;47.448;18.904;2023-05-03T07:10:49;100157.59;;;14.83;100.00
57068;BME280;43391;47.448;18.904;2023-05-03T07:13:14;100161.16;;;14.97;100.00
57068;BME280;43391;47.448;18.904;2023-05-03T07:15:40;100162.66;;;15.01;100.00
57068;BME280;43391;47.448;18.904;2023-05-03T07:18:05;100170.97;;;15.08;100.00
57068;BME280;43391;47.448;18.904;2023-05-03T07:20:31;100163.88;;;15.24;100.00
57068;BME280;43391;47.448;18.904;2023-05-03T07:22:56;100165.34;;;15.43;100.00
57068;BME280;43391;47.448;18.904;2023-05-03T07:25:22;100170.78;;;15.54;100.00
57068;BME280;43391;47.448;18.904;2023-05-03T07:27:47;100164.66;;;15.68;100.00
57068;BME280;43391;47.448;18.904;2023-05-03T07:30:13;100165.31;;;15.72;100.00
57068;BME280;43391;47.448;18.904;2023-05-03T07:32:38;100158.63;;;15.81;100.00
57068;BME280;43391;47.448;18.904;2023-05-03T07:35:04;100161.53;;;15.91;100.00
57068;BME280;43391;47.448;18.904;2023-05-03T07:37:31;100163.16;;;16.06;100.00
57068;BME280;43391;47.448;18.904;2023-05-03T07:39:56;100158.09;;;16.18;100.00
57068;BME280;43391;47.448;18.904;2023-05-03T07:42:22;100158.84;;;16.33;100.00
57068;BME280;43391;47.448;18.904;2023-05-03T07:44:47;100163.28;;;16.45;100.00
57068;BME280;43391;47.448;18.904;2023-05-03T07:47:13;100155.94;;;16.51;100.00
57068;BME280;43391;47.448;18.904;2023-05-03T07:49:38;100161.63;;;16.57;100.00
57068;BME280;43391;47.448;18.904;2023-05-03T07:52:04;100162.91;;;16.65;100.00
57068;BME280;43391;47.448;18.904;2023-05-03T07:54:29;100162.16;;;16.76;100.00
57068;BME280;43391;47.448;18.904;2023-05-03T07:56:55;100169.00;;;16.78;100.00
57068;BME280;43391;47.448;18.904;2023-05-03T07:59:20;100158.38;;;16.54;100.00
57068;BME280;43391;47.448;18.904;2023-05-03T08:01:45;100165.34;;;16.40;100.00
57068;BME280;43391;47.448;18.904;2023-05-03T08:04:11;100171.91;;;16.47;100.00
57068;BME280;43391;47.448;18.904;2023-05-03T08:06:36;100174.94;;;16.80;100.00
57068;BME280;43391;47.448;18.904;2023-05-03T08:09:03;100173.75;;;17.12;100.00
57068;BME280;43391;47.448;18.904;2023-05-03T08:11:31;100183.25;;;17.39;100.00
57068;BME280;43391;47.448;18.904;2023-05-03T08:13:57;100175.34;;;17.65;100.00
57068;BME280;43391;47.448;18.904;2023-05-03T08:16:22;100185.34;;;17.84;100.00
57068;BME280;43391;47.448;18.904;2023-05-03T08:18:48;100180.41;;;17.92;99.91
57068;BME280;43391;47.448;18.904;2023-05-03T08:21:13;100188.31;;;17.79;99.77
57068;BME280;43391;47.448;18.904;2023-05-03T08:23:39;100181.22;;;17.56;100.00
57068;BME280;43391;47.448;18.904;2023-05-03T08:26:04;100179.88;;;17.63;100.00
57068;BME280;43391;47.448;18.904;2023-05-03T08:28:31;100178.03;;;17.76;100.00
57068;BME280;43391;47.448;18.904;2023-05-03T08:30:57;100187.88;;;17.86;97.37
57068;BME280;43391;47.448;18.904;2023-05-03T08:33:22;100181.78;;;18.23;97.31
57068;BME280;43391;47.448;18.904;2023-05-03T08:35:48;100185.97;;;18.61;95.99
57068;BME280;43391;47.448;18.904;2023-05-03T08:38:13;100191.63;;;18.91;92.03
57068;BME280;43391;47.448;18.904;2023-05-03T08:40:39;100184.69;;;18.78;89.71
57068;BME280;43391;47.448;18.904;2023-05-03T08:43:07;100180.84;;;18.71;90.09
57068;BME280;43391;47.448;18.904;2023-05-03T08:45:34;100192.13;;;18.96;88.80
57068;BME280;43391;47.448;18.904;2023-05-03T08:48:00;100193.72;;;19.10;89.91
57068;BME280;43391;47.448;18.904;2023-05-03T08:50:28;100191.22;;;19.31;86.62
57068;BME280;43391;47.448;18.904;2023-05-03T08:52:54;100189.91;;;19.25;85.79
57068;BME280;43391;47.448;18.904;2023-05-03T08:55:20;100200.06;;;19.19;87.70
57068;BME280;43391;47.448;18.904;2023-05-03T08:57:46;100197.97;;;18.99;89.58
57068;BME280;43391;47.448;18.904;2023-05-03T09:00:11;100189.81;;;18.80;90.54
57068;BME280;43391;47.448;18.904;2023-05-03T09:02:37;100195.44;;;18.75;89.59
57068;BME280;43391;47.448;18.904;2023-05-03T09:08:10;100194.59;;;18.75;90.11
57068;BME280;43391;47.448;18.904;2023-05-03T09:10:38;100197.78;;;18.67;89.03
57068;BME280;43391;47.448;18.904;2023-05-03T09:13:04;100194.03;;;18.46;88.60
57068;BME280;43391;47.448;18.904;2023-05-03T09:15:31;100195.38;;;18.28;91.12
57068;BME280;43391;47.448;18.904;2023-05-03T09:18:06;100196.19;;;18.17;93.06
57068;BME280;43391;47.448;18.904;2023-05-03T09:20:37;100199.44;;;18.21;94.50
57068;BME280;43391;47.448;18.904;2023-05-03T09:23:03;100201.50;;;18.28;91.36
57068;BME280;43391;47.448;18.904;2023-05-03T09:25:45;100198.19;;;18.38;90.46
57068;BME280;43391;47.448;18.904;2023-05-03T09:28:15;100196.66;;;18.46;90.87
57068;BME280;43391;47.448;18.904;2023-05-03T09:30:41;100192.47;;;18.44;90.21
57068;BME280;43391;47.448;18.904;2023-05-03T09:33:07;100190.63;;;18.33;88.01
57068;BME280;43391;47.448;18.904;2023-05-03T09:35:33;100190.13;;;18.28;87.35
57068;BME280;43391;47.448;18.904;2023-05-03T09:37:59;100190.97;;;18.28;87.49
57068;BME280;43391;47.448;18.904;2023-05-03T09:40:28;100189.91;;;18.31;88.45
57068;BME280;43391;47.448;18.904;2023-05-03T09:45:32;100188.09;;;18.56;86.96
57068;BME280;43391;47.448;18.904;2023-05-03T09:48:00;100187.28;;;18.67;85.78
57068;BME280;43391;47.448;18.904;2023-05-03T09:50:26;100186.66;;;18.63;86.30
57068;BME280;43391;47.448;18.904;2023-05-03T09:52:52;100189.94;;;18.78;87.57
57068;BME280;43391;47.448;18.904;2023-05-03T09:55:20;100189.59;;;18.94;87.71
57068;BME280;43391;47.448;18.904;2023-05-03T09:57:46;100194.75;;;18.96;86.13
57068;BME280;43391;47.448;18.904;2023-05-03T10:00:13;100191.91;;;18.99;85.18
57068;BME280;43391;47.448;18.904;2023-05-03T10:02:40;100187.13;;;19.04;84.65
57068;BME280;43391;47.448;18.904;2023-05-03T10:05:09;100183.31;;;19.08;86.99
57068;BME280;43391;47.448;18.904;2023-05-03T10:07:38;100178.53;;;19.25;84.72
57068;BME280;43391;47.448;18.904;2023-05-03T10:10:06;100176.00;;;19.12;81.52
57068;BME280;43391;47.448;18.904;2023-05-03T10:12:32;100180.78;;;19.07;84.28
57068;BME280;43391;47.448;18.904;2023-05-03T10:15:04;100184.13;;;18.97;85.66
57068;BME280;43391;47.448;18.904;2023-05-03T10:17:34;100178.38;;;18.92;87.75
57068;BME280;43391;47.448;18.904;2023-05-03T10:20:55;100185.03;;;18.73;86.98
57068;BME280;43391;47.448;18.904;2023-05-03T10:25:34;100176.03;;;18.65;89.03
57068;BME280;43391;47.448;18.904;2023-05-03T10:28:01;100182.44;;;18.49;87.73
57068;BME280;43391;47.448;18.904;2023-05-03T10:32:54;100175.66;;;18.58;86.77
57068;BME280;43391;47.448;18.904;2023-05-03T10:35:19;100176.97;;;18.52;86.29
57068;BME280;43391;47.448;18.904;2023-05-03T10:37:47;100174.59;;;18.61;86.96
57068;BME280;43391;47.448;18.904;2023-05-03T10:40:14;100177.88;;;18.76;88.99
57068;BME280;43391;47.448;18.904;2023-05-03T10:42:53;100175.72;;;18.81;86.68
57068;BME280;43391;47.448;18.904;2023-05-03T10:45:27;100165.53;;;18.76;86.92
57068;BME280;43391;47.448;18.904;2023-05-03T10:50:37;100162.69;;;18.68;87.60
57068;BME280;43391;47.448;18.904;2023-05-03T10:53:02;100157.75;;;18.75;88.14
57068;BME280;43391;47.448;18.904;2023-05-03T10:55:28;100163.75;;;18.77;87.23
57068;BME280;43391;47.448;18.904;2023-05-03T10:57:55;100167.47;;;18.74;88.53
57068;BME280;43391;47.448;18.904;2023-05-03T11:00:28;100165.06;;;18.71;89.08
57068;BME280;43391;47.448;18.904;2023-05-03T11:05:50;100163.00;;;18.52;87.21
57068;BME280;43391;47.448;18.904;2023-05-03T11:08:18;100159.88;;;18.46;85.44
57068;BME280;43391;47.448;18.904;2023-05-03T11:10:45;100161.53;;;18.48;85.92
57068;BME280;43391;47.448;18.904;2023-05-03T11:13:11;100163.34;;;18.47;87.13
57068;BME280;43391;47.448;18.904;2023-05-03T11:15:36;100161.88;;;18.43;87.31
57068;BME280;43391;47.448;18.904;2023-05-03T11:18:05;100169.78;;;18.43;87.50
57068;BME280;43391;47.448;18.904;2023-05-03T11:20:30;100169.03;;;18.41;86.64
57068;BME280;43391;47.448;18.904;2023-05-03T11:22:56;100162.72;;;18.43;88.26
57068;BME280;43391;47.448;18.904;2023-05-03T11:25:21;100168.03;;;18.30;90.26
57068;BME280;43391;47.448;18.904;2023-05-03T11:27:46;100164.28;;;18.10;92.06
57068;BME280;43391;47.448;18.904;2023-05-03T11:30:12;100165.84;;;18.13;93.15
57068;BME280;43391;47.448;18.904;2023-05-03T11:32:38;100165.63;;;18.16;90.91
57068;BME280;43391;47.448;18.904;2023-05-03T11:35:05;100167.53;;;18.01;94.14
57068;BME280;43391;47.448;18.904;2023-05-03T11:37:32;100162.91;;;18.04;94.89
57068;BME280;43391;47.448;18.904;2023-05-03T11:39:58;100166.41;;;17.92;94.02
57068;BME280;43391;47.448;18.904;2023-05-03T11:42:23;100162.72;;;17.95;94.54
57068;BME280;43391;47.448;18.904;2023-05-03T11:44:51;100161.22;;;18.03;94.68
57068;BME280;43391;47.448;18.904;2023-05-03T11:47:17;100164.50;;;18.07;93.39
57068;BME280;43391;47.448;18.904;2023-05-03T11:49:53;100158.41;;;18.06;92.76
57068;BME280;43391;47.448;18.904;2023-05-03T11:52:25;100164.16;;;18.12;93.71
57068;BME280;43391;47.448;18.904;2023-05-03T11:54:51;100165.13;;;18.11;93.90
57068;BME280;43391;47.448;18.904;2023-05-03T11:57:17;100167.69;;;18.24;94.09
57068;BME280;43391;47.448;18.904;2023-05-03T11:59:43;100165.28;;;18.21;94.03
57068;BME280;43391;47.448;18.904;2023-05-03T12:02:11;100158.56;;;18.16;95.09
57068;BME280;43391;47.448;18.904;2023-05-03T12:04:38;100162.53;;;17.98;95.30
57068;BME280;43391;47.448;18.904;2023-05-03T12:07:05;100165.47;;;17.93;96.35
57068;BME280;43391;47.448;18.904;2023-05-03T12:09:32;100161.41;;;17.89;97.36
57068;BME280;43391;47.448;18.904;2023-05-03T12:11:58;100159.19;;;17.83;96.48
57068;BME280;43391;47.448;18.904;2023-05-03T12:14:24;100166.06;;;17.72;96.78
57068;BME280;43391;47.448;18.904;2023-05-03T12:16:51;100155.59;;;17.59;97.08
57068;BME280;43391;47.448;18.904;2023-05-03T12:21:49;100154.47;;;17.50;99.77
57068;BME280;43391;47.448;18.904;2023-05-03T12:24:14;100155.25;;;17.39;98.80
57068;BME280;43391;47.448;18.904;2023-05-03T12:26:46;100146.88;;;17.21;98.67
57068;BME280;43391;47.448;18.904;2023-05-03T12:29:12;100151.72;;;17.15;100.00
57068;BME280;43391;47.448;18.904;2023-05-03T12:31:38;100151.09;;;17.11;99.43
57068;BME280;43391;47.448;18.904;2023-05-03T12:34:03;100149.53;;;17.08;99.17
57068;BME280;43391;47.448;18.904;2023-05-03T12:36:29;100143.31;;;17.09;99.72
57068;BME280;43391;47.448;18.904;2023-05-03T12:38:58;100142.06;;;17.02;99.30
57068;BME280;43391;47.448;18.904;2023-05-03T12:41:24;100147.06;;;16.92;100.00
57068;BME280;43391;47.448;18.904;2023-05-03T12:43:52;100139.31;;;16.91;100.00
57068;BME280;43391;47.448;18.904;2023-05-03T12:46:17;100138.06;;;16.83;100.00
57068;BME280;43391;47.448;18.904;2023-05-03T12:48:43;100128.09;;;16.76;99.73
57068;BME280;43391;47.448;18.904;2023-05-03T12:51:09;100131.75;;;16.73;100.00
57068;BME280;43391;47.448;18.904;2023-05-03T12:53:34;100135.53;;;16.82;100.00
57068;BME280;43391;47.448;18.904;2023-05-03T12:55:59;100128.94;;;16.89;100.00
57068;BME280;43391;47.448;18.904;2023-05-03T12:58:25;100119.91;;;16.93;100.00